Terminal Aerodrome Forecast
Issued by NWS Cleveland, OH

Home | Current Version | Previous Version | Graphics & Text | Print | Product List | Glossary Off
Versions: 1 2 3 4 5 6 7 8 9 10 11 12 13 14 15 16

000
FTUS41 KCLE 200202 AAB
TAFERI
TAF AMD
KERI 200202Z 2002/2024 33012KT P6SM SKC
     FM201200 34011KT P6SM SCT120
     FM201800 28011KT P6SM FEW120=

USA.gov is the U.S. government's official web portal to all federal, state and local government web resources and services.